Tenney, Minnesota
Current Conditions -  °F | °C
As of 4:16 PM on Friday 24 Oct 2014 (Local Time) from KETH Reporting Station
Clear Clear  
Wind Chill: 72°   Ceiling: Unl
Heat Index: 72°   Visibility: 10mi
Dew Point: 43°   Wind: 7mph
Humidity: 35%   Direction: 270°W
Pressure: 29.84"   Gusts: NA
Location:  45.9787°N, 96.4182°W
Report Text: KETH 242116Z AUTO 27006KT 10SM CLR 22/06 A2984 RMK AO2
Loading
Personal Weather Stations






























Interactive Weather Map
Tropical Storm Tracking
New forecast layout! Learn more

10-Day Weather Forecast

Advertisements
Track Severe Weather on mobile